createdAt,value
2019-03-08T05:00:40.200Z,978.97
2019-03-08T05:01:41.333Z,978.90
2019-03-08T05:02:41.312Z,978.96
2019-03-08T05:03:41.312Z,978.94
2019-03-08T05:04:41.313Z,978.79
2019-03-08T05:05:41.291Z,978.90
2019-03-08T05:06:41.326Z,979.02
2019-03-08T05:07:41.271Z,979.02
2019-03-08T05:08:41.271Z,978.92
2019-03-08T05:09:41.370Z,978.99
2019-03-08T05:10:41.264Z,979.14
2019-03-08T05:11:41.308Z,979.12
2019-03-08T05:12:41.363Z,979.09
2019-03-08T05:13:41.275Z,979.03
2019-03-08T05:14:41.242Z,979.07
2019-03-08T05:15:41.226Z,979.10
2019-03-08T05:16:41.224Z,979.04
2019-03-08T05:17:41.230Z,979.13
2019-03-08T05:18:41.251Z,979.13
2019-03-08T05:19:41.203Z,979.19
2019-03-08T05:20:41.212Z,979.26
2019-03-08T05:21:41.211Z,979.14
2019-03-08T05:22:41.157Z,979.22
2019-03-08T05:23:41.148Z,979.27
2019-03-08T05:24:41.206Z,979.25
2019-03-08T05:25:41.152Z,979.35
2019-03-08T05:26:41.140Z,979.19
2019-03-08T05:27:41.148Z,979.25
2019-03-08T05:28:41.168Z,979.18
2019-03-08T05:29:41.144Z,979.06
2019-03-08T05:30:41.141Z,979.16
2019-03-08T05:31:41.123Z,979.17
2019-03-08T05:32:41.071Z,979.11
2019-03-08T05:33:41.095Z,979.23
2019-03-08T05:34:41.040Z,979.29
2019-03-08T05:35:41.094Z,979.14
2019-03-08T05:36:41.084Z,979.24
2019-03-08T05:37:41.053Z,979.11
2019-03-08T05:38:41.042Z,979.18
2019-03-08T05:39:41.013Z,979.27
2019-03-08T05:40:41.015Z,979.37
2019-03-08T05:41:41.011Z,979.35
2019-03-08T05:42:41.008Z,979.26
2019-03-08T05:43:40.992Z,979.28
2019-03-08T05:44:41.031Z,979.27
2019-03-08T05:45:41.041Z,979.30
2019-03-08T05:46:40.956Z,979.35
2019-03-08T05:47:41.002Z,979.25
2019-03-08T05:48:40.976Z,979.32
2019-03-08T05:49:41.004Z,979.40
2019-03-08T05:50:40.964Z,979.34
2019-03-08T05:51:40.990Z,979.39
2019-03-08T05:52:40.934Z,979.26
2019-03-08T05:53:40.937Z,979.31
2019-03-08T05:54:40.926Z,979.49
2019-03-08T05:55:40.918Z,979.53
2019-03-08T05:56:40.894Z,979.45
2019-03-08T05:57:40.908Z,979.53
2019-03-08T05:58:40.874Z,979.56
2019-03-08T05:59:40.864Z,979.46
2019-03-08T06:00:40.883Z,979.42
2019-03-08T06:01:40.887Z,979.47
2019-03-08T06:02:40.855Z,979.54
2019-03-08T06:03:40.833Z,979.55
2019-03-08T06:04:40.851Z,979.57
2019-03-08T06:05:40.842Z,979.61
2019-03-08T06:06:40.832Z,979.53
2019-03-08T06:07:40.813Z,979.72
2019-03-08T06:08:40.818Z,979.74
2019-03-08T06:09:40.808Z,979.79
2019-03-08T06:10:40.793Z,979.75
2019-03-08T06:11:40.795Z,979.64
2019-03-08T06:12:40.799Z,979.79
2019-03-08T06:13:40.816Z,979.81
2019-03-08T06:14:40.785Z,979.78
2019-03-08T06:15:40.844Z,979.87
2019-03-08T06:16:40.772Z,979.78
2019-03-08T06:17:40.746Z,979.84
2019-03-08T06:18:40.742Z,979.96
2019-03-08T06:19:40.758Z,979.76
2019-03-08T06:20:40.830Z,979.84
2019-03-08T06:21:40.758Z,979.85
2019-03-08T06:22:40.736Z,979.88
2019-03-08T06:23:40.713Z,979.97
2019-03-08T06:24:40.692Z,980.04
2019-03-08T06:25:41.774Z,980.03
2019-03-08T06:26:40.688Z,980.12
2019-03-08T06:27:40.724Z,980.03
2019-03-08T06:28:40.719Z,980.11
2019-03-08T06:29:40.702Z,980.25
2019-03-08T06:30:40.662Z,980.30
2019-03-08T06:31:40.661Z,980.20
2019-03-08T06:32:40.661Z,980.28
2019-03-08T06:33:40.642Z,980.33
2019-03-08T06:34:40.669Z,980.37
2019-03-08T06:35:40.654Z,980.36
2019-03-08T06:36:40.673Z,980.26
2019-03-08T06:37:40.663Z,980.43
2019-03-08T06:38:40.633Z,980.41
2019-03-08T06:39:40.602Z,980.45
2019-03-08T06:40:40.610Z,980.45
2019-03-08T06:41:40.616Z,980.48
2019-03-08T06:42:40.872Z,980.57
2019-03-08T06:43:40.625Z,980.75
2019-03-08T06:44:40.598Z,980.60
2019-03-08T06:45:40.613Z,980.66
2019-03-08T06:46:40.548Z,980.85
2019-03-08T06:47:40.533Z,980.87
2019-03-08T06:48:40.697Z,980.81
